sensor_id;sensor_type;location;lat;lon;timestamp;P1;durP1;ratioP1;P2;durP2;ratioP2
56141;SDS011;42018;48.588;10.836;2022-07-22T00:00:16;6.15;;;4.55;;
56141;SDS011;42018;48.588;10.836;2022-07-22T00:03:02;5.13;;;4.43;;
56141;SDS011;42018;48.588;10.836;2022-07-22T00:05:47;5.28;;;4.50;;
56141;SDS011;42018;48.588;10.836;2022-07-22T00:08:32;5.05;;;4.55;;
56141;SDS011;42018;48.588;10.836;2022-07-22T00:11:18;5.20;;;4.25;;
56141;SDS011;42018;48.588;10.836;2022-07-22T00:14:03;5.47;;;4.68;;
56141;SDS011;42018;48.588;10.836;2022-07-22T00:16:49;5.00;;;4.35;;
56141;SDS011;42018;48.588;10.836;2022-07-22T00:19:34;5.80;;;5.20;;
56141;SDS011;42018;48.588;10.836;2022-07-22T00:22:20;5.68;;;4.50;;
56141;SDS011;42018;48.588;10.836;2022-07-22T00:25:05;5.20;;;4.60;;
56141;SDS011;42018;48.588;10.836;2022-07-22T00:27:51;4.88;;;4.38;;
56141;SDS011;42018;48.588;10.836;2022-07-22T00:30:36;5.05;;;4.55;;
56141;SDS011;42018;48.588;10.836;2022-07-22T00:33:22;6.60;;;4.85;;
56141;SDS011;42018;48.588;10.836;2022-07-22T00:36:07;4.90;;;4.15;;
56141;SDS011;42018;48.588;10.836;2022-07-22T00:38:53;6.47;;;4.63;;
56141;SDS011;42018;48.588;10.836;2022-07-22T00:41:39;5.00;;;4.50;;
56141;SDS011;42018;48.588;10.836;2022-07-22T00:44:24;6.82;;;4.80;;
56141;SDS011;42018;48.588;10.836;2022-07-22T00:47:09;5.65;;;4.82;;
56141;SDS011;42018;48.588;10.836;2022-07-22T00:49:55;5.93;;;4.72;;
56141;SDS011;42018;48.588;10.836;2022-07-22T00:52:40;4.95;;;4.30;;
56141;SDS011;42018;48.588;10.836;2022-07-22T00:55:26;5.63;;;4.72;;
56141;SDS011;42018;48.588;10.836;2022-07-22T00:58:12;5.43;;;4.63;;
56141;SDS011;42018;48.588;10.836;2022-07-22T01:00:58;4.97;;;4.45;;
56141;SDS011;42018;48.588;10.836;2022-07-22T01:03:43;5.45;;;4.70;;
56141;SDS011;42018;48.588;10.836;2022-07-22T01:06:29;5.72;;;4.75;;
56141;SDS011;42018;48.588;10.836;2022-07-22T01:09:15;5.82;;;4.53;;
56141;SDS011;42018;48.588;10.836;2022-07-22T01:12:01;6.35;;;4.53;;
56141;SDS011;42018;48.588;10.836;2022-07-22T01:14:47;5.68;;;4.45;;
56141;SDS011;42018;48.588;10.836;2022-07-22T01:17:32;5.53;;;4.63;;
56141;SDS011;42018;48.588;10.836;2022-07-22T01:20:18;5.05;;;4.53;;
56141;SDS011;42018;48.588;10.836;2022-07-22T01:23:03;5.47;;;4.88;;
56141;SDS011;42018;48.588;10.836;2022-07-22T01:25:49;5.40;;;4.25;;
56141;SDS011;42018;48.588;10.836;2022-07-22T01:28:34;6.15;;;4.40;;
56141;SDS011;42018;48.588;10.836;2022-07-22T01:31:20;5.75;;;4.72;;
56141;SDS011;42018;48.588;10.836;2022-07-22T01:34:05;5.28;;;4.65;;
56141;SDS011;42018;48.588;10.836;2022-07-22T01:36:50;6.53;;;5.10;;
56141;SDS011;42018;48.588;10.836;2022-07-22T01:39:36;6.57;;;4.97;;
56141;SDS011;42018;48.588;10.836;2022-07-22T01:42:21;13.60;;;5.07;;
56141;SDS011;42018;48.588;10.836;2022-07-22T01:45:07;5.60;;;3.70;;
56141;SDS011;42018;48.588;10.836;2022-07-22T01:47:53;4.50;;;3.30;;
56141;SDS011;42018;48.588;10.836;2022-07-22T01:50:38;4.30;;;3.30;;
56141;SDS011;42018;48.588;10.836;2022-07-22T01:53:24;4.88;;;4.00;;
56141;SDS011;42018;48.588;10.836;2022-07-22T01:56:10;5.38;;;4.40;;
56141;SDS011;42018;48.588;10.836;2022-07-22T01:58:56;5.60;;;4.38;;
56141;SDS011;42018;48.588;10.836;2022-07-22T02:01:41;5.20;;;3.97;;
56141;SDS011;42018;48.588;10.836;2022-07-22T02:04:27;4.95;;;4.10;;
56141;SDS011;42018;48.588;10.836;2022-07-22T02:07:12;5.57;;;3.70;;
56141;SDS011;42018;48.588;10.836;2022-07-22T02:09:58;4.85;;;3.90;;
56141;SDS011;42018;48.588;10.836;2022-07-22T02:12:43;4.70;;;3.53;;
56141;SDS011;42018;48.588;10.836;2022-07-22T02:15:29;5.63;;;3.78;;
56141;SDS011;42018;48.588;10.836;2022-07-22T02:18:15;5.13;;;4.03;;
56141;SDS011;42018;48.588;10.836;2022-07-22T02:21:02;4.95;;;3.75;;
56141;SDS011;42018;48.588;10.836;2022-07-22T02:23:48;4.75;;;3.85;;
56141;SDS011;42018;48.588;10.836;2022-07-22T02:26:34;5.00;;;4.05;;
56141;SDS011;42018;48.588;10.836;2022-07-22T02:29:19;6.28;;;4.32;;
56141;SDS011;42018;48.588;10.836;2022-07-22T02:32:05;6.10;;;4.20;;
56141;SDS011;42018;48.588;10.836;2022-07-22T02:34:50;5.13;;;4.07;;
56141;SDS011;42018;48.588;10.836;2022-07-22T02:37:36;5.15;;;4.20;;
56141;SDS011;42018;48.588;10.836;2022-07-22T02:40:22;5.30;;;4.00;;
56141;SDS011;42018;48.588;10.836;2022-07-22T02:43:08;4.80;;;4.30;;
56141;SDS011;42018;48.588;10.836;2022-07-22T02:45:53;4.93;;;4.03;;
56141;SDS011;42018;48.588;10.836;2022-07-22T02:48:39;5.30;;;4.40;;
56141;SDS011;42018;48.588;10.836;2022-07-22T02:51:24;5.38;;;4.40;;
56141;SDS011;42018;48.588;10.836;2022-07-22T02:54:11;5.72;;;4.30;;
56141;SDS011;42018;48.588;10.836;2022-07-22T02:56:56;5.20;;;4.28;;
56141;SDS011;42018;48.588;10.836;2022-07-22T02:59:41;5.35;;;4.38;;
56141;SDS011;42018;48.588;10.836;2022-07-22T03:02:27;4.75;;;4.25;;
56141;SDS011;42018;48.588;10.836;2022-07-22T03:05:12;5.10;;;4.10;;
56141;SDS011;42018;48.588;10.836;2022-07-22T03:08:00;4.55;;;3.83;;
56141;SDS011;42018;48.588;10.836;2022-07-22T03:10:46;4.75;;;3.85;;
56141;SDS011;42018;48.588;10.836;2022-07-22T03:13:31;5.38;;;4.15;;
56141;SDS011;42018;48.588;10.836;2022-07-22T03:16:17;4.72;;;4.18;;
56141;SDS011;42018;48.588;10.836;2022-07-22T03:19:02;4.50;;;3.60;;
56141;SDS011;42018;48.588;10.836;2022-07-22T03:21:48;4.50;;;3.70;;
56141;SDS011;42018;48.588;10.836;2022-07-22T03:24:33;4.53;;;3.72;;
56141;SDS011;42018;48.588;10.836;2022-07-22T03:27:19;4.38;;;3.40;;
56141;SDS011;42018;48.588;10.836;2022-07-22T03:30:05;4.68;;;3.30;;
56141;SDS011;42018;48.588;10.836;2022-07-22T03:32:50;4.00;;;2.80;;
56141;SDS011;42018;48.588;10.836;2022-07-22T03:35:36;4.22;;;2.80;;
56141;SDS011;42018;48.588;10.836;2022-07-22T03:38:21;4.65;;;3.10;;
56141;SDS011;42018;48.588;10.836;2022-07-22T03:41:07;3.92;;;2.67;;
56141;SDS011;42018;48.588;10.836;2022-07-22T03:43:52;3.83;;;2.35;;
56141;SDS011;42018;48.588;10.836;2022-07-22T03:46:37;3.75;;;2.50;;
56141;SDS011;42018;48.588;10.836;2022-07-22T03:49:23;4.05;;;2.58;;
56141;SDS011;42018;48.588;10.836;2022-07-22T03:52:08;4.10;;;2.60;;
56141;SDS011;42018;48.588;10.836;2022-07-22T03:54:53;4.32;;;2.63;;
56141;SDS011;42018;48.588;10.836;2022-07-22T03:57:39;3.67;;;2.63;;
56141;SDS011;42018;48.588;10.836;2022-07-22T04:00:24;4.10;;;2.97;;
56141;SDS011;42018;48.588;10.836;2022-07-22T04:03:10;4.97;;;2.88;;
56141;SDS011;42018;48.588;10.836;2022-07-22T04:05:55;3.95;;;2.90;;
56141;SDS011;42018;48.588;10.836;2022-07-22T04:08:40;5.85;;;2.88;;
56141;SDS011;42018;48.588;10.836;2022-07-22T04:11:26;4.13;;;3.03;;
56141;SDS011;42018;48.588;10.836;2022-07-22T04:14:12;3.88;;;2.60;;
56141;SDS011;42018;48.588;10.836;2022-07-22T04:16:57;3.45;;;2.30;;
56141;SDS011;42018;48.588;10.836;2022-07-22T04:19:42;4.38;;;2.60;;
56141;SDS011;42018;48.588;10.836;2022-07-22T04:22:28;4.43;;;2.80;;
56141;SDS011;42018;48.588;10.836;2022-07-22T04:25:13;4.35;;;2.65;;
56141;SDS011;42018;48.588;10.836;2022-07-22T04:27:59;3.85;;;2.38;;
56141;SDS011;42018;48.588;10.836;2022-07-22T04:30:45;4.25;;;3.03;;
56141;SDS011;42018;48.588;10.836;2022-07-22T04:33:30;4.38;;;3.10;;
56141;SDS011;42018;48.588;10.836;2022-07-22T04:36:16;4.40;;;3.08;;
56141;SDS011;42018;48.588;10.836;2022-07-22T04:39:01;4.57;;;3.45;;
56141;SDS011;42018;48.588;10.836;2022-07-22T04:41:47;6.18;;;3.80;;
56141;SDS011;42018;48.588;10.836;2022-07-22T04:44:32;4.68;;;4.15;;
56141;SDS011;42018;48.588;10.836;2022-07-22T04:47:17;5.20;;;4.05;;
56141;SDS011;42018;48.588;10.836;2022-07-22T04:50:03;5.60;;;4.00;;
56141;SDS011;42018;48.588;10.836;2022-07-22T04:52:48;5.38;;;3.97;;
56141;SDS011;42018;48.588;10.836;2022-07-22T04:55:34;5.03;;;4.10;;
56141;SDS011;42018;48.588;10.836;2022-07-22T04:58:19;6.13;;;4.32;;
56141;SDS011;42018;48.588;10.836;2022-07-22T05:01:05;7.28;;;4.30;;
56141;SDS011;42018;48.588;10.836;2022-07-22T05:03:51;6.72;;;4.57;;
56141;SDS011;42018;48.588;10.836;2022-07-22T05:06:39;6.85;;;4.68;;
56141;SDS011;42018;48.588;10.836;2022-07-22T05:09:25;6.82;;;4.72;;
56141;SDS011;42018;48.588;10.836;2022-07-22T05:12:10;6.15;;;4.65;;
56141;SDS011;42018;48.588;10.836;2022-07-22T05:14:55;6.13;;;4.35;;
56141;SDS011;42018;48.588;10.836;2022-07-22T05:17:41;6.07;;;4.72;;
56141;SDS011;42018;48.588;10.836;2022-07-22T05:20:26;7.22;;;5.10;;
56141;SDS011;42018;48.588;10.836;2022-07-22T05:23:11;5.80;;;4.95;;
56141;SDS011;42018;48.588;10.836;2022-07-22T05:25:57;6.38;;;4.90;;
56141;SDS011;42018;48.588;10.836;2022-07-22T05:28:43;5.60;;;5.00;;
56141;SDS011;42018;48.588;10.836;2022-07-22T05:31:28;4.95;;;4.35;;
56141;SDS011;42018;48.588;10.836;2022-07-22T05:34:13;6.10;;;4.70;;
56141;SDS011;42018;48.588;10.836;2022-07-22T05:36:59;5.45;;;4.68;;
56141;SDS011;42018;48.588;10.836;2022-07-22T05:39:44;6.22;;;4.47;;
56141;SDS011;42018;48.588;10.836;2022-07-22T05:42:29;5.28;;;4.55;;
56141;SDS011;42018;48.588;10.836;2022-07-22T05:45:15;5.40;;;4.82;;
56141;SDS011;42018;48.588;10.836;2022-07-22T05:48:00;5.97;;;4.20;;
56141;SDS011;42018;48.588;10.836;2022-07-22T05:50:46;6.53;;;4.97;;
56141;SDS011;42018;48.588;10.836;2022-07-22T05:53:32;5.70;;;4.68;;
56141;SDS011;42018;48.588;10.836;2022-07-22T05:56:17;6.63;;;4.57;;
56141;SDS011;42018;48.588;10.836;2022-07-22T05:59:02;5.78;;;5.07;;
56141;SDS011;42018;48.588;10.836;2022-07-22T06:01:48;7.20;;;5.72;;
56141;SDS011;42018;48.588;10.836;2022-07-22T06:04:33;5.85;;;4.70;;
56141;SDS011;42018;48.588;10.836;2022-07-22T06:07:19;5.47;;;4.93;;
56141;SDS011;42018;48.588;10.836;2022-07-22T06:10:04;5.57;;;4.70;;
56141;SDS011;42018;48.588;10.836;2022-07-22T06:12:50;5.68;;;4.53;;
56141;SDS011;42018;48.588;10.836;2022-07-22T06:15:35;5.55;;;4.70;;
56141;SDS011;42018;48.588;10.836;2022-07-22T06:18:21;5.93;;;5.10;;
56141;SDS011;42018;48.588;10.836;2022-07-22T06:21:06;5.30;;;4.28;;
56141;SDS011;42018;48.588;10.836;2022-07-22T06:23:52;6.45;;;4.80;;
56141;SDS011;42018;48.588;10.836;2022-07-22T06:26:38;5.90;;;4.72;;
56141;SDS011;42018;48.588;10.836;2022-07-22T06:29:23;6.53;;;4.82;;
56141;SDS011;42018;48.588;10.836;2022-07-22T06:32:08;6.30;;;4.88;;
56141;SDS011;42018;48.588;10.836;2022-07-22T06:34:54;6.10;;;4.70;;
56141;SDS011;42018;48.588;10.836;2022-07-22T06:37:39;5.60;;;4.70;;
56141;SDS011;42018;48.588;10.836;2022-07-22T06:40:25;6.43;;;4.57;;
56141;SDS011;42018;48.588;10.836;2022-07-22T06:43:10;5.30;;;4.80;;
56141;SDS011;42018;48.588;10.836;2022-07-22T06:45:55;5.43;;;4.60;;
56141;SDS011;42018;48.588;10.836;2022-07-22T06:48:41;5.32;;;4.40;;
56141;SDS011;42018;48.588;10.836;2022-07-22T06:51:27;5.78;;;4.22;;
56141;SDS011;42018;48.588;10.836;2022-07-22T06:54:12;5.63;;;4.03;;
56141;SDS011;42018;48.588;10.836;2022-07-22T06:56:57;5.60;;;4.32;;
56141;SDS011;42018;48.588;10.836;2022-07-22T06:59:43;5.28;;;3.85;;
56141;SDS011;42018;48.588;10.836;2022-07-22T07:02:28;5.65;;;3.75;;
56141;SDS011;42018;48.588;10.836;2022-07-22T07:05:14;6.38;;;3.88;;
56141;SDS011;42018;48.588;10.836;2022-07-22T07:08:00;4.63;;;3.60;;
56141;SDS011;42018;48.588;10.836;2022-07-22T07:10:45;5.57;;;3.85;;
56141;SDS011;42018;48.588;10.836;2022-07-22T07:13:30;5.07;;;3.80;;
56141;SDS011;42018;48.588;10.836;2022-07-22T07:16:16;4.85;;;3.83;;
56141;SDS011;42018;48.588;10.836;2022-07-22T07:19:01;5.68;;;3.55;;
56141;SDS011;42018;48.588;10.836;2022-07-22T07:21:47;4.80;;;3.63;;
56141;SDS011;42018;48.588;10.836;2022-07-22T07:24:32;4.90;;;3.85;;
56141;SDS011;42018;48.588;10.836;2022-07-22T07:27:18;5.57;;;3.67;;
56141;SDS011;42018;48.588;10.836;2022-07-22T07:30:04;4.35;;;3.47;;
56141;SDS011;42018;48.588;10.836;2022-07-22T07:32:50;5.60;;;3.85;;
56141;SDS011;42018;48.588;10.836;2022-07-22T07:35:35;5.13;;;3.78;;
56141;SDS011;42018;48.588;10.836;2022-07-22T07:38:21;4.60;;;3.50;;
56141;SDS011;42018;48.588;10.836;2022-07-22T07:41:06;5.03;;;3.70;;
56141;SDS011;42018;48.588;10.836;2022-07-22T07:43:51;5.13;;;3.50;;
56141;SDS011;42018;48.588;10.836;2022-07-22T07:46:37;5.00;;;3.95;;
56141;SDS011;42018;48.588;10.836;2022-07-22T07:49:23;5.10;;;3.92;;
56141;SDS011;42018;48.588;10.836;2022-07-22T07:52:08;5.78;;;4.28;;
56141;SDS011;42018;48.588;10.836;2022-07-22T07:54:54;4.90;;;3.67;;
56141;SDS011;42018;48.588;10.836;2022-07-22T07:57:40;4.97;;;3.60;;
56141;SDS011;42018;48.588;10.836;2022-07-22T08:00:26;4.03;;;3.03;;
56141;SDS011;42018;48.588;10.836;2022-07-22T08:03:13;6.20;;;3.50;;
56141;SDS011;42018;48.588;10.836;2022-07-22T08:05:59;4.97;;;3.22;;
56141;SDS011;42018;48.588;10.836;2022-07-22T08:08:44;5.88;;;3.72;;
56141;SDS011;42018;48.588;10.836;2022-07-22T08:11:30;4.53;;;2.88;;
56141;SDS011;42018;48.588;10.836;2022-07-22T08:14:15;4.65;;;2.90;;
56141;SDS011;42018;48.588;10.836;2022-07-22T08:17:01;4.50;;;2.90;;
56141;SDS011;42018;48.588;10.836;2022-07-22T08:19:46;4.72;;;3.00;;
56141;SDS011;42018;48.588;10.836;2022-07-22T08:22:32;4.13;;;2.80;;
56141;SDS011;42018;48.588;10.836;2022-07-22T08:25:17;4.85;;;2.63;;
56141;SDS011;42018;48.588;10.836;2022-07-22T08:28:03;7.30;;;2.88;;
56141;SDS011;42018;48.588;10.836;2022-07-22T08:30:49;4.22;;;2.63;;
56141;SDS011;42018;48.588;10.836;2022-07-22T08:33:34;4.00;;;2.90;;
56141;SDS011;42018;48.588;10.836;2022-07-22T08:36:20;5.22;;;3.00;;
56141;SDS011;42018;48.588;10.836;2022-07-22T08:39:05;4.20;;;2.78;;
56141;SDS011;42018;48.588;10.836;2022-07-22T08:41:51;3.92;;;2.67;;
56141;SDS011;42018;48.588;10.836;2022-07-22T08:44:36;5.10;;;2.80;;
56141;SDS011;42018;48.588;10.836;2022-07-22T08:47:22;4.60;;;2.72;;
56141;SDS011;42018;48.588;10.836;2022-07-22T08:50:08;4.32;;;2.60;;
56141;SDS011;42018;48.588;10.836;2022-07-22T08:52:54;4.30;;;2.67;;
56141;SDS011;42018;48.588;10.836;2022-07-22T08:55:40;3.92;;;2.50;;
56141;SDS011;42018;48.588;10.836;2022-07-22T08:58:28;4.40;;;2.53;;
56141;SDS011;42018;48.588;10.836;2022-07-22T09:01:14;3.65;;;2.30;;
56141;SDS011;42018;48.588;10.836;2022-07-22T09:04:01;5.88;;;2.58;;
56141;SDS011;42018;48.588;10.836;2022-07-22T09:06:48;4.65;;;2.60;;
56141;SDS011;42018;48.588;10.836;2022-07-22T09:09:33;5.93;;;2.80;;
56141;SDS011;42018;48.588;10.836;2022-07-22T09:12:19;4.47;;;2.20;;
56141;SDS011;42018;48.588;10.836;2022-07-22T09:15:05;4.22;;;2.40;;
56141;SDS011;42018;48.588;10.836;2022-07-22T09:17:51;4.15;;;2.40;;
56141;SDS011;42018;48.588;10.836;2022-07-22T09:20:36;4.82;;;2.60;;
56141;SDS011;42018;48.588;10.836;2022-07-22T09:23:22;3.97;;;2.22;;
56141;SDS011;42018;48.588;10.836;2022-07-22T09:26:14;4.13;;;2.42;;
56141;SDS011;42018;48.588;10.836;2022-07-22T09:29:23;5.47;;;2.53;;
56141;SDS011;42018;48.588;10.836;2022-07-22T09:32:09;4.32;;;2.60;;
56141;SDS011;42018;48.588;10.836;2022-07-22T09:35:02;4.22;;;2.65;;
56141;SDS011;42018;48.588;10.836;2022-07-22T09:37:50;4.25;;;2.50;;
56141;SDS011;42018;48.588;10.836;2022-07-22T09:40:44;4.25;;;2.50;;
56141;SDS011;42018;48.588;10.836;2022-07-22T09:43:34;3.72;;;2.20;;
56141;SDS011;42018;48.588;10.836;2022-07-22T09:46:36;3.70;;;2.25;;
56141;SDS011;42018;48.588;10.836;2022-07-22T09:49:36;4.13;;;2.22;;
56141;SDS011;42018;48.588;10.836;2022-07-22T09:52:24;5.97;;;2.63;;
56141;SDS011;42018;48.588;10.836;2022-07-22T09:55:10;3.63;;;2.20;;
56141;SDS011;42018;48.588;10.836;2022-07-22T09:57:59;4.55;;;2.50;;
56141;SDS011;42018;48.588;10.836;2022-07-22T10:00:44;4.65;;;2.53;;
56141;SDS011;42018;48.588;10.836;2022-07-22T10:03:32;4.57;;;2.40;;
56141;SDS011;42018;48.588;10.836;2022-07-22T10:06:21;4.03;;;2.30;;
56141;SDS011;42018;48.588;10.836;2022-07-22T10:09:07;4.45;;;2.45;;
56141;SDS011;42018;48.588;10.836;2022-07-22T10:11:54;4.10;;;2.50;;
56141;SDS011;42018;48.588;10.836;2022-07-22T10:14:39;4.07;;;2.30;;
56141;SDS011;42018;48.588;10.836;2022-07-22T10:17:25;3.70;;;2.22;;
56141;SDS011;42018;48.588;10.836;2022-07-22T10:20:11;4.07;;;2.20;;
56141;SDS011;42018;48.588;10.836;2022-07-22T10:22:57;5.78;;;2.72;;
56141;SDS011;42018;48.588;10.836;2022-07-22T10:25:55;3.75;;;2.13;;
56141;SDS011;42018;48.588;10.836;2022-07-22T10:28:43;4.25;;;2.35;;
56141;SDS011;42018;48.588;10.836;2022-07-22T10:31:29;4.75;;;2.47;;
56141;SDS011;42018;48.588;10.836;2022-07-22T10:34:14;5.07;;;2.50;;
56141;SDS011;42018;48.588;10.836;2022-07-22T10:36:59;4.18;;;2.40;;
56141;SDS011;42018;48.588;10.836;2022-07-22T10:43:17;4.93;;;2.67;;
56141;SDS011;42018;48.588;10.836;2022-07-22T10:46:03;4.80;;;2.50;;
56141;SDS011;42018;48.588;10.836;2022-07-22T10:48:51;4.03;;;2.20;;
56141;SDS011;42018;48.588;10.836;2022-07-22T10:51:36;3.90;;;2.10;;
56141;SDS011;42018;48.588;10.836;2022-07-22T10:54:22;5.22;;;2.45;;
56141;SDS011;42018;48.588;10.836;2022-07-22T10:57:07;4.18;;;2.08;;
56141;SDS011;42018;48.588;10.836;2022-07-22T10:59:53;4.75;;;2.20;;
56141;SDS011;42018;48.588;10.836;2022-07-22T11:02:39;3.88;;;2.00;;
56141;SDS011;42018;48.588;10.836;2022-07-22T11:05:26;4.53;;;2.40;;
56141;SDS011;42018;48.588;10.836;2022-07-22T11:08:12;4.03;;;2.50;;
56141;SDS011;42018;48.588;10.836;2022-07-22T11:10:58;3.80;;;2.30;;
56141;SDS011;42018;48.588;10.836;2022-07-22T11:13:43;4.53;;;2.30;;
56141;SDS011;42018;48.588;10.836;2022-07-22T11:16:29;4.72;;;2.25;;
56141;SDS011;42018;48.588;10.836;2022-07-22T11:19:18;3.80;;;2.15;;
56141;SDS011;42018;48.588;10.836;2022-07-22T11:22:10;4.82;;;2.25;;
56141;SDS011;42018;48.588;10.836;2022-07-22T11:24:56;4.50;;;2.10;;
56141;SDS011;42018;48.588;10.836;2022-07-22T11:27:53;3.75;;;2.28;;
56141;SDS011;42018;48.588;10.836;2022-07-22T11:30:41;3.88;;;2.33;;
56141;SDS011;42018;48.588;10.836;2022-07-22T11:33:26;3.92;;;2.20;;
56141;SDS011;42018;48.588;10.836;2022-07-22T11:36:11;5.15;;;2.25;;
56141;SDS011;42018;48.588;10.836;2022-07-22T11:38:57;4.47;;;2.17;;
56141;SDS011;42018;48.588;10.836;2022-07-22T11:41:42;5.13;;;2.25;;
56141;SDS011;42018;48.588;10.836;2022-07-22T11:44:29;4.05;;;2.22;;
56141;SDS011;42018;48.588;10.836;2022-07-22T11:47:16;3.40;;;2.10;;
56141;SDS011;42018;48.588;10.836;2022-07-22T11:50:02;3.85;;;1.90;;
56141;SDS011;42018;48.588;10.836;2022-07-22T11:52:53;3.92;;;2.45;;
56141;SDS011;42018;48.588;10.836;2022-07-22T11:55:39;4.20;;;2.33;;
56141;SDS011;42018;48.588;10.836;2022-07-22T11:58:41;3.85;;;2.10;;
56141;SDS011;42018;48.588;10.836;2022-07-22T12:01:31;4.32;;;2.45;;
56141;SDS011;42018;48.588;10.836;2022-07-22T12:04:19;3.90;;;2.10;;
56141;SDS011;42018;48.588;10.836;2022-07-22T12:07:07;3.97;;;2.40;;
56141;SDS011;42018;48.588;10.836;2022-07-22T12:09:56;4.35;;;2.20;;
56141;SDS011;42018;48.588;10.836;2022-07-22T12:12:42;4.50;;;2.40;;
56141;SDS011;42018;48.588;10.836;2022-07-22T12:15:27;5.00;;;2.33;;
56141;SDS011;42018;48.588;10.836;2022-07-22T12:24:12;5.22;;;2.17;;
56141;SDS011;42018;48.588;10.836;2022-07-22T12:27:00;4.00;;;2.30;;
56141;SDS011;42018;48.588;10.836;2022-07-22T12:29:48;4.25;;;2.20;;
56141;SDS011;42018;48.588;10.836;2022-07-22T12:32:34;4.60;;;2.40;;
56141;SDS011;42018;48.588;10.836;2022-07-22T12:35:20;3.65;;;2.10;;
56141;SDS011;42018;48.588;10.836;2022-07-22T12:38:06;4.07;;;2.17;;
56141;SDS011;42018;48.588;10.836;2022-07-22T12:40:53;3.80;;;2.20;;
56141;SDS011;42018;48.588;10.836;2022-07-22T12:43:38;3.58;;;2.05;;
56141;SDS011;42018;48.588;10.836;2022-07-22T12:46:24;5.78;;;2.28;;
56141;SDS011;42018;48.588;10.836;2022-07-22T12:49:09;4.13;;;2.22;;
56141;SDS011;42018;48.588;10.836;2022-07-22T12:52:06;3.67;;;2.10;;
56141;SDS011;42018;48.588;10.836;2022-07-22T12:54:51;3.55;;;2.20;;
56141;SDS011;42018;48.588;10.836;2022-07-22T12:57:37;3.40;;;2.10;;
56141;SDS011;42018;48.588;10.836;2022-07-22T13:00:24;5.35;;;2.20;;
56141;SDS011;42018;48.588;10.836;2022-07-22T13:03:11;3.97;;;2.22;;
56141;SDS011;42018;48.588;10.836;2022-07-22T13:05:58;4.47;;;2.17;;
56141;SDS011;42018;48.588;10.836;2022-07-22T13:08:46;4.38;;;2.17;;
56141;SDS011;42018;48.588;10.836;2022-07-22T13:11:33;3.60;;;2.17;;
56141;SDS011;42018;48.588;10.836;2022-07-22T13:14:24;4.22;;;2.35;;
56141;SDS011;42018;48.588;10.836;2022-07-22T13:17:09;3.83;;;2.20;;
56141;SDS011;42018;48.588;10.836;2022-07-22T13:19:57;4.13;;;2.30;;
56141;SDS011;42018;48.588;10.836;2022-07-22T13:22:45;4.00;;;2.30;;
56141;SDS011;42018;48.588;10.836;2022-07-22T13:25:31;4.05;;;2.20;;
56141;SDS011;42018;48.588;10.836;2022-07-22T13:28:17;3.42;;;2.20;;
56141;SDS011;42018;48.588;10.836;2022-07-22T13:31:03;6.03;;;2.50;;
56141;SDS011;42018;48.588;10.836;2022-07-22T13:33:48;4.07;;;2.40;;
56141;SDS011;42018;48.588;10.836;2022-07-22T13:36:34;3.60;;;2.20;;
56141;SDS011;42018;48.588;10.836;2022-07-22T13:39:19;4.63;;;2.10;;
56141;SDS011;42018;48.588;10.836;2022-07-22T13:42:06;3.22;;;2.03;;
56141;SDS011;42018;48.588;10.836;2022-07-22T13:44:52;4.88;;;2.20;;
56141;SDS011;42018;48.588;10.836;2022-07-22T13:47:40;11.38;;;2.47;;
56141;SDS011;42018;48.588;10.836;2022-07-22T13:50:25;4.53;;;2.20;;
56141;SDS011;42018;48.588;10.836;2022-07-22T13:53:11;3.60;;;2.17;;
56141;SDS011;42018;48.588;10.836;2022-07-22T13:55:56;3.60;;;2.28;;
56141;SDS011;42018;48.588;10.836;2022-07-22T13:58:42;3.83;;;2.35;;
56141;SDS011;42018;48.588;10.836;2022-07-22T14:01:27;4.47;;;2.30;;
56141;SDS011;42018;48.588;10.836;2022-07-22T14:04:13;4.15;;;2.20;;
56141;SDS011;42018;48.588;10.836;2022-07-22T14:06:59;3.80;;;2.20;;
56141;SDS011;42018;48.588;10.836;2022-07-22T14:09:44;5.18;;;2.03;;
56141;SDS011;42018;48.588;10.836;2022-07-22T14:12:29;3.55;;;2.15;;
56141;SDS011;42018;48.588;10.836;2022-07-22T14:15:15;5.18;;;2.10;;
56141;SDS011;42018;48.588;10.836;2022-07-22T14:18:01;5.57;;;2.35;;
56141;SDS011;42018;48.588;10.836;2022-07-22T14:20:46;3.85;;;2.22;;
56141;SDS011;42018;48.588;10.836;2022-07-22T14:23:31;3.78;;;2.10;;
56141;SDS011;42018;48.588;10.836;2022-07-22T14:26:17;5.43;;;2.25;;
56141;SDS011;42018;48.588;10.836;2022-07-22T14:29:02;3.85;;;2.00;;
56141;SDS011;42018;48.588;10.836;2022-07-22T14:31:48;5.00;;;2.65;;
56141;SDS011;42018;48.588;10.836;2022-07-22T14:34:34;3.97;;;2.42;;
56141;SDS011;42018;48.588;10.836;2022-07-22T14:37:20;4.78;;;2.13;;
56141;SDS011;42018;48.588;10.836;2022-07-22T14:40:07;4.20;;;2.20;;
56141;SDS011;42018;48.588;10.836;2022-07-22T14:42:52;4.13;;;2.20;;
56141;SDS011;42018;48.588;10.836;2022-07-22T14:45:38;3.75;;;2.10;;
56141;SDS011;42018;48.588;10.836;2022-07-22T14:48:23;4.65;;;2.22;;
56141;SDS011;42018;48.588;10.836;2022-07-22T14:51:09;3.95;;;2.20;;
56141;SDS011;42018;48.588;10.836;2022-07-22T14:53:54;3.67;;;2.30;;
56141;SDS011;42018;48.588;10.836;2022-07-22T14:56:39;4.43;;;2.40;;
56141;SDS011;42018;48.588;10.836;2022-07-22T14:59:25;3.85;;;2.40;;
56141;SDS011;42018;48.588;10.836;2022-07-22T15:02:11;4.10;;;2.45;;
56141;SDS011;42018;48.588;10.836;2022-07-22T15:04:57;3.72;;;2.30;;
56141;SDS011;42018;48.588;10.836;2022-07-22T15:07:42;4.35;;;2.50;;
56141;SDS011;42018;48.588;10.836;2022-07-22T15:10:27;5.10;;;2.50;;
56141;SDS011;42018;48.588;10.836;2022-07-22T15:13:13;4.95;;;2.47;;
56141;SDS011;42018;48.588;10.836;2022-07-22T15:15:58;4.15;;;2.20;;
56141;SDS011;42018;48.588;10.836;2022-07-22T15:18:44;3.90;;;2.20;;
56141;SDS011;42018;48.588;10.836;2022-07-22T15:21:29;3.60;;;2.30;;
56141;SDS011;42018;48.588;10.836;2022-07-22T15:24:16;3.75;;;2.17;;
56141;SDS011;42018;48.588;10.836;2022-07-22T15:27:02;5.15;;;2.40;;
56141;SDS011;42018;48.588;10.836;2022-07-22T15:29:47;4.25;;;2.38;;
56141;SDS011;42018;48.588;10.836;2022-07-22T15:32:33;3.70;;;2.53;;
56141;SDS011;42018;48.588;10.836;2022-07-22T15:35:19;4.18;;;2.30;;
56141;SDS011;42018;48.588;10.836;2022-07-22T15:38:04;3.65;;;2.25;;
56141;SDS011;42018;48.588;10.836;2022-07-22T15:40:50;4.00;;;2.30;;
56141;SDS011;42018;48.588;10.836;2022-07-22T15:43:35;4.57;;;2.40;;
56141;SDS011;42018;48.588;10.836;2022-07-22T15:46:24;4.80;;;2.53;;
56141;SDS011;42018;48.588;10.836;2022-07-22T15:49:09;4.80;;;2.30;;
56141;SDS011;42018;48.588;10.836;2022-07-22T15:51:56;3.28;;;2.10;;
56141;SDS011;42018;48.588;10.836;2022-07-22T15:54:41;4.22;;;2.53;;
56141;SDS011;42018;48.588;10.836;2022-07-22T15:57:27;4.15;;;2.42;;
56141;SDS011;42018;48.588;10.836;2022-07-22T16:00:31;3.60;;;2.30;;
56141;SDS011;42018;48.588;10.836;2022-07-22T16:03:17;4.95;;;2.45;;
56141;SDS011;42018;48.588;10.836;2022-07-22T16:06:02;4.40;;;2.40;;
56141;SDS011;42018;48.588;10.836;2022-07-22T16:08:48;4.82;;;2.40;;
56141;SDS011;42018;48.588;10.836;2022-07-22T16:11:34;4.00;;;2.60;;
56141;SDS011;42018;48.588;10.836;2022-07-22T16:14:19;4.18;;;2.33;;
56141;SDS011;42018;48.588;10.836;2022-07-22T16:17:05;4.00;;;2.60;;
56141;SDS011;42018;48.588;10.836;2022-07-22T16:19:50;4.10;;;2.50;;
56141;SDS011;42018;48.588;10.836;2022-07-22T16:22:36;4.35;;;2.58;;
56141;SDS011;42018;48.588;10.836;2022-07-22T16:25:22;4.07;;;2.40;;
56141;SDS011;42018;48.588;10.836;2022-07-22T16:28:07;4.80;;;2.50;;
56141;SDS011;42018;48.588;10.836;2022-07-22T16:30:53;3.90;;;2.15;;
56141;SDS011;42018;48.588;10.836;2022-07-22T16:33:38;5.20;;;2.30;;